sensor_id;sensor_type;location;lat;lon;timestamp;pressure;altitude;pressure_sealevel;temperature;humidity
72428;BME280;60419;48.880;18.036;2022-09-14T00:01:25;98446.72;;;16.18;63.51
72428;BME280;60419;48.880;18.036;2022-09-14T00:04:20;98443.00;;;16.26;63.68
72428;BME280;60419;48.880;18.036;2022-09-14T00:07:06;98444.13;;;16.25;63.46
72428;BME280;60419;48.880;18.036;2022-09-14T00:09:52;98440.63;;;16.05;64.65
72428;BME280;60419;48.880;18.036;2022-09-14T00:12:37;98445.75;;;15.91;65.04
72428;BME280;60419;48.880;18.036;2022-09-14T00:15:23;98445.75;;;15.75;64.87
72428;BME280;60419;48.880;18.036;2022-09-14T00:18:09;98441.13;;;15.28;66.64
72428;BME280;60419;48.880;18.036;2022-09-14T00:21:03;98441.75;;;15.22;66.61
72428;BME280;60419;48.880;18.036;2022-09-14T00:23:48;98433.78;;;14.69;68.60
72428;BME280;60419;48.880;18.036;2022-09-14T00:26:34;98438.47;;;14.84;68.43
72428;BME280;60419;48.880;18.036;2022-09-14T00:29:20;98420.66;;;14.87;68.29
72428;BME280;60419;48.880;18.036;2022-09-14T00:32:06;98429.69;;;14.75;68.57
72428;BME280;60419;48.880;18.036;2022-09-14T00:34:51;98428.66;;;14.39;70.10
72428;BME280;60419;48.880;18.036;2022-09-14T00:37:37;98423.06;;;14.48;69.61
72428;BME280;60419;48.880;18.036;2022-09-14T00:40:23;98426.44;;;14.69;68.36
72428;BME280;60419;48.880;18.036;2022-09-14T00:43:13;98421.34;;;14.84;68.01
72428;BME280;60419;48.880;18.036;2022-09-14T00:46:00;98411.97;;;13.84;71.62
72428;BME280;60419;48.880;18.036;2022-09-14T00:48:46;98420.38;;;14.48;69.52
72428;BME280;60419;48.880;18.036;2022-09-14T00:51:32;98420.75;;;12.95;75.35
72428;BME280;60419;48.880;18.036;2022-09-14T00:54:18;98416.84;;;13.54;73.76
72428;BME280;60419;48.880;18.036;2022-09-14T00:57:04;98421.16;;;14.20;70.92
72428;BME280;60419;48.880;18.036;2022-09-14T00:59:51;98417.84;;;14.55;69.59
72428;BME280;60419;48.880;18.036;2022-09-14T01:02:38;98416.41;;;14.45;69.45
72428;BME280;60419;48.880;18.036;2022-09-14T01:05:39;98412.06;;;14.28;69.80
72428;BME280;60419;48.880;18.036;2022-09-14T01:14:36;98392.75;;;14.18;70.61
72428;BME280;60419;48.880;18.036;2022-09-14T01:17:30;98393.72;;;14.53;69.34
72428;BME280;60419;48.880;18.036;2022-09-14T01:20:23;98391.97;;;14.73;68.40
72428;BME280;60419;48.880;18.036;2022-09-14T01:23:27;98384.00;;;14.81;68.17
72428;BME280;60419;48.880;18.036;2022-09-14T01:29:34;98390.94;;;14.94;67.50
72428;BME280;60419;48.880;18.036;2022-09-14T01:32:29;98382.00;;;15.09;66.82
72428;BME280;60419;48.880;18.036;2022-09-14T01:35:21;98390.50;;;14.92;67.77
72428;BME280;60419;48.880;18.036;2022-09-14T01:38:14;98391.63;;;14.91;67.35
72428;BME280;60419;48.880;18.036;2022-09-14T01:41:03;98385.50;;;14.66;68.28
72428;BME280;60419;48.880;18.036;2022-09-14T01:43:53;98377.38;;;14.66;68.31
72428;BME280;60419;48.880;18.036;2022-09-14T01:46:44;98386.00;;;14.84;68.37
72428;BME280;60419;48.880;18.036;2022-09-14T01:49:39;98377.72;;;14.64;67.87
72428;BME280;60419;48.880;18.036;2022-09-14T01:52:30;98376.63;;;14.81;67.73
72428;BME280;60419;48.880;18.036;2022-09-14T01:55:26;98373.72;;;14.46;69.80
72428;BME280;60419;48.880;18.036;2022-09-14T01:58:17;98364.56;;;14.66;68.93
72428;BME280;60419;48.880;18.036;2022-09-14T02:01:06;98360.41;;;14.41;69.53
72428;BME280;60419;48.880;18.036;2022-09-14T02:03:58;98355.31;;;14.39;69.92
72428;BME280;60419;48.880;18.036;2022-09-14T02:06:47;98355.00;;;13.48;73.92
72428;BME280;60419;48.880;18.036;2022-09-14T02:09:33;98363.25;;;14.04;71.53
72428;BME280;60419;48.880;18.036;2022-09-14T02:12:18;98371.25;;;13.72;71.87
72428;BME280;60419;48.880;18.036;2022-09-14T02:15:05;98366.34;;;13.90;71.14
72428;BME280;60419;48.880;18.036;2022-09-14T02:17:52;98361.75;;;14.19;70.32
72428;BME280;60419;48.880;18.036;2022-09-14T02:20:43;98337.81;;;13.96;70.98
72428;BME280;60419;48.880;18.036;2022-09-14T02:23:31;98350.44;;;13.88;70.81
72428;BME280;60419;48.880;18.036;2022-09-14T02:26:18;98364.75;;;14.29;69.43
72428;BME280;60419;48.880;18.036;2022-09-14T02:29:04;98342.44;;;14.36;68.39
72428;BME280;60419;48.880;18.036;2022-09-14T02:32:02;98382.53;;;14.27;69.29
72428;BME280;60419;48.880;18.036;2022-09-14T02:35:12;98373.13;;;13.96;70.50
72428;BME280;60419;48.880;18.036;2022-09-14T02:38:13;98360.75;;;14.39;69.47
72428;BME280;60419;48.880;18.036;2022-09-14T02:41:11;98359.28;;;14.58;69.71
72428;BME280;60419;48.880;18.036;2022-09-14T02:47:03;98369.69;;;14.12;71.01
72428;BME280;60419;48.880;18.036;2022-09-14T02:53:09;98337.34;;;14.06;71.46
72428;BME280;60419;48.880;18.036;2022-09-14T02:56:03;98356.22;;;14.15;71.42
72428;BME280;60419;48.880;18.036;2022-09-14T02:58:50;98354.63;;;14.42;70.57
72428;BME280;60419;48.880;18.036;2022-09-14T03:01:35;98357.47;;;14.62;69.79
72428;BME280;60419;48.880;18.036;2022-09-14T03:04:21;98363.41;;;14.51;70.39
72428;BME280;60419;48.880;18.036;2022-09-14T03:07:06;98359.63;;;14.56;70.18
72428;BME280;60419;48.880;18.036;2022-09-14T03:09:52;98352.75;;;14.74;69.63
72428;BME280;60419;48.880;18.036;2022-09-14T03:12:38;98352.91;;;14.22;72.06
72428;BME280;60419;48.880;18.036;2022-09-14T03:15:24;98341.75;;;13.46;75.12
72428;BME280;60419;48.880;18.036;2022-09-14T03:18:10;98327.88;;;14.00;72.74
72428;BME280;60419;48.880;18.036;2022-09-14T03:21:04;98343.59;;;14.51;71.78
72428;BME280;60419;48.880;18.036;2022-09-14T03:23:52;98327.88;;;14.72;70.42
72428;BME280;60419;48.880;18.036;2022-09-14T03:26:39;98323.94;;;14.70;70.04
72428;BME280;60419;48.880;18.036;2022-09-14T03:29:24;98329.22;;;14.66;70.88
72428;BME280;60419;48.880;18.036;2022-09-14T03:32:10;98333.38;;;14.04;73.87
72428;BME280;60419;48.880;18.036;2022-09-14T03:34:56;98324.91;;;14.34;72.96
72428;BME280;60419;48.880;18.036;2022-09-14T03:37:43;98321.94;;;13.82;73.89
72428;BME280;60419;48.880;18.036;2022-09-14T03:40:29;98315.41;;;13.47;75.33
72428;BME280;60419;48.880;18.036;2022-09-14T03:43:14;98315.09;;;13.48;75.08
72428;BME280;60419;48.880;18.036;2022-09-14T03:46:11;98319.53;;;13.53;75.62
72428;BME280;60419;48.880;18.036;2022-09-14T03:48:57;98322.00;;;13.45;75.94
72428;BME280;60419;48.880;18.036;2022-09-14T03:51:42;98315.69;;;13.17;76.83
72428;BME280;60419;48.880;18.036;2022-09-14T03:54:28;98320.06;;;13.71;74.93
72428;BME280;60419;48.880;18.036;2022-09-14T03:57:14;98325.25;;;14.04;73.58
72428;BME280;60419;48.880;18.036;2022-09-14T04:00:00;98329.25;;;13.94;73.37
72428;BME280;60419;48.880;18.036;2022-09-14T04:02:45;98328.69;;;14.17;72.50
72428;BME280;60419;48.880;18.036;2022-09-14T04:05:30;98324.56;;;14.07;72.95
72428;BME280;60419;48.880;18.036;2022-09-14T04:08:16;98315.56;;;14.19;72.60
72428;BME280;60419;48.880;18.036;2022-09-14T04:11:12;98295.38;;;14.64;71.00
72428;BME280;60419;48.880;18.036;2022-09-14T04:14:02;98299.44;;;14.54;70.74
72428;BME280;60419;48.880;18.036;2022-09-14T04:16:48;98310.44;;;14.01;72.52
72428;BME280;60419;48.880;18.036;2022-09-14T04:19:33;98323.31;;;14.32;72.23
72428;BME280;60419;48.880;18.036;2022-09-14T04:22:21;98318.97;;;14.44;71.18
72428;BME280;60419;48.880;18.036;2022-09-14T04:25:07;98318.97;;;14.16;72.79
72428;BME280;60419;48.880;18.036;2022-09-14T04:27:52;98314.28;;;14.00;73.33
72428;BME280;60419;48.880;18.036;2022-09-14T04:30:38;98315.97;;;14.33;72.47
72428;BME280;60419;48.880;18.036;2022-09-14T04:33:24;98321.31;;;14.61;71.72
72428;BME280;60419;48.880;18.036;2022-09-14T04:36:15;98326.50;;;14.50;72.38
72428;BME280;60419;48.880;18.036;2022-09-14T04:39:02;98330.03;;;14.67;71.43
72428;BME280;60419;48.880;18.036;2022-09-14T04:41:47;98339.66;;;13.92;74.73
72428;BME280;60419;48.880;18.036;2022-09-14T04:44:33;98334.88;;;13.61;75.93
72428;BME280;60419;48.880;18.036;2022-09-14T04:47:18;98339.72;;;13.68;75.73
72428;BME280;60419;48.880;18.036;2022-09-14T04:50:04;98342.03;;;13.94;75.37
72428;BME280;60419;48.880;18.036;2022-09-14T04:52:50;98340.06;;;14.50;74.20
72428;BME280;60419;48.880;18.036;2022-09-14T04:55:35;98338.31;;;14.14;74.37
72428;BME280;60419;48.880;18.036;2022-09-14T04:58:21;98337.59;;;14.01;75.01
72428;BME280;60419;48.880;18.036;2022-09-14T05:01:11;98338.63;;;14.25;74.23
72428;BME280;60419;48.880;18.036;2022-09-14T05:03:57;98323.66;;;14.03;74.76
72428;BME280;60419;48.880;18.036;2022-09-14T05:06:43;98321.53;;;14.84;72.26
72428;BME280;60419;48.880;18.036;2022-09-14T05:09:28;98321.88;;;15.30;70.68
72428;BME280;60419;48.880;18.036;2022-09-14T05:12:13;98321.16;;;14.54;73.26
72428;BME280;60419;48.880;18.036;2022-09-14T05:14:59;98313.63;;;15.11;71.83
72428;BME280;60419;48.880;18.036;2022-09-14T05:17:44;98329.34;;;15.02;73.08
72428;BME280;60419;48.880;18.036;2022-09-14T05:20:29;98337.03;;;14.68;72.29
72428;BME280;60419;48.880;18.036;2022-09-14T05:23:15;98334.91;;;14.61;72.28
72428;BME280;60419;48.880;18.036;2022-09-14T05:26:01;98323.00;;;14.50;73.30
72428;BME280;60419;48.880;18.036;2022-09-14T05:28:50;98316.03;;;14.96;71.84
72428;BME280;60419;48.880;18.036;2022-09-14T05:31:36;98324.25;;;15.16;70.54
72428;BME280;60419;48.880;18.036;2022-09-14T05:34:22;98307.78;;;15.09;70.63
72428;BME280;60419;48.880;18.036;2022-09-14T05:37:10;98304.72;;;15.46;70.76
72428;BME280;60419;48.880;18.036;2022-09-14T05:39:56;98320.50;;;15.56;69.19
72428;BME280;60419;48.880;18.036;2022-09-14T05:42:41;98324.66;;;15.34;69.35
72428;BME280;60419;48.880;18.036;2022-09-14T05:45:26;98294.38;;;15.35;69.53
72428;BME280;60419;48.880;18.036;2022-09-14T05:48:12;98310.81;;;15.23;70.37
72428;BME280;60419;48.880;18.036;2022-09-14T05:50:59;98310.94;;;15.46;69.48
72428;BME280;60419;48.880;18.036;2022-09-14T05:53:49;98319.88;;;15.47;69.66
72428;BME280;60419;48.880;18.036;2022-09-14T05:56:36;98313.25;;;15.79;68.57
72428;BME280;60419;48.880;18.036;2022-09-14T05:59:22;98303.13;;;15.99;67.70
72428;BME280;60419;48.880;18.036;2022-09-14T06:02:08;98291.78;;;14.28;72.62
72428;BME280;60419;48.880;18.036;2022-09-14T06:04:54;98296.91;;;13.89;73.60
72428;BME280;60419;48.880;18.036;2022-09-14T06:07:39;98298.78;;;14.45;72.29
72428;BME280;60419;48.880;18.036;2022-09-14T06:10:25;98292.97;;;14.15;72.52
72428;BME280;60419;48.880;18.036;2022-09-14T06:13:10;98296.47;;;13.87;73.56
72428;BME280;60419;48.880;18.036;2022-09-14T06:16:00;98298.53;;;14.50;71.19
72428;BME280;60419;48.880;18.036;2022-09-14T06:18:47;98290.66;;;15.08;69.70
72428;BME280;60419;48.880;18.036;2022-09-14T06:21:34;98312.38;;;15.59;67.93
72428;BME280;60419;48.880;18.036;2022-09-14T06:24:19;98299.75;;;15.16;69.38
72428;BME280;60419;48.880;18.036;2022-09-14T06:27:04;98308.31;;;14.99;69.38
72428;BME280;60419;48.880;18.036;2022-09-14T06:29:53;98317.53;;;14.94;69.99
72428;BME280;60419;48.880;18.036;2022-09-14T06:32:38;98310.94;;;14.95;69.67
72428;BME280;60419;48.880;18.036;2022-09-14T06:35:24;98280.88;;;13.84;73.46
72428;BME280;60419;48.880;18.036;2022-09-14T06:38:09;98306.19;;;14.16;73.29
72428;BME280;60419;48.880;18.036;2022-09-14T06:40:56;98308.56;;;15.09;70.19
72428;BME280;60419;48.880;18.036;2022-09-14T06:43:42;98298.69;;;14.85;70.50
72428;BME280;60419;48.880;18.036;2022-09-14T06:46:30;98290.63;;;14.29;72.23
72428;BME280;60419;48.880;18.036;2022-09-14T06:49:16;98300.81;;;14.48;71.62
72428;BME280;60419;48.880;18.036;2022-09-14T06:52:04;98296.63;;;14.82;70.63
72428;BME280;60419;48.880;18.036;2022-09-14T06:54:50;98292.72;;;14.95;70.27
72428;BME280;60419;48.880;18.036;2022-09-14T06:57:35;98285.75;;;15.14;69.87
72428;BME280;60419;48.880;18.036;2022-09-14T07:00:22;98295.31;;;14.60;71.26
72428;BME280;60419;48.880;18.036;2022-09-14T07:03:08;98302.56;;;14.56;71.53
72428;BME280;60419;48.880;18.036;2022-09-14T07:06:00;98304.75;;;15.30;68.99
72428;BME280;60419;48.880;18.036;2022-09-14T07:08:46;98310.16;;;14.35;71.28
72428;BME280;60419;48.880;18.036;2022-09-14T07:11:32;98308.16;;;14.31;71.96
72428;BME280;60419;48.880;18.036;2022-09-14T07:14:18;98309.41;;;14.50;70.88
72428;BME280;60419;48.880;18.036;2022-09-14T07:17:04;98307.44;;;14.94;69.51
72428;BME280;60419;48.880;18.036;2022-09-14T07:19:49;98313.13;;;15.05;69.48
72428;BME280;60419;48.880;18.036;2022-09-14T07:22:35;98308.69;;;15.32;68.47
72428;BME280;60419;48.880;18.036;2022-09-14T07:25:20;98305.97;;;15.32;68.32
72428;BME280;60419;48.880;18.036;2022-09-14T07:28:05;98295.84;;;15.68;67.79
72428;BME280;60419;48.880;18.036;2022-09-14T07:30:51;98228.34;;;15.58;66.68
72428;BME280;60419;48.880;18.036;2022-09-14T07:33:36;98297.91;;;15.91;66.74
72428;BME280;60419;48.880;18.036;2022-09-14T07:36:23;98302.53;;;16.29;65.74
72428;BME280;60419;48.880;18.036;2022-09-14T07:39:12;98305.94;;;16.68;64.40
72428;BME280;60419;48.880;18.036;2022-09-14T07:41:58;98300.31;;;17.30;62.74
72428;BME280;60419;48.880;18.036;2022-09-14T07:44:43;98312.53;;;17.13;62.86
72428;BME280;60419;48.880;18.036;2022-09-14T07:47:29;98314.00;;;17.34;61.67
72428;BME280;60419;48.880;18.036;2022-09-14T07:50:14;98305.53;;;17.43;62.19
72428;BME280;60419;48.880;18.036;2022-09-14T07:53:00;98304.63;;;17.31;62.85
72428;BME280;60419;48.880;18.036;2022-09-14T07:55:45;98312.50;;;17.93;60.72
72428;BME280;60419;48.880;18.036;2022-09-14T07:58:31;98323.53;;;17.74;60.96
72428;BME280;60419;48.880;18.036;2022-09-14T08:01:16;98337.28;;;17.77;60.82
72428;BME280;60419;48.880;18.036;2022-09-14T08:04:02;98329.13;;;17.28;62.03
72428;BME280;60419;48.880;18.036;2022-09-14T08:06:48;98342.25;;;17.45;62.92
72428;BME280;60419;48.880;18.036;2022-09-14T08:09:33;98341.66;;;17.32;64.30
72428;BME280;60419;48.880;18.036;2022-09-14T08:12:18;98349.16;;;17.12;64.48
72428;BME280;60419;48.880;18.036;2022-09-14T08:15:04;98346.72;;;16.81;67.44
72428;BME280;60419;48.880;18.036;2022-09-14T08:17:50;98345.34;;;17.17;65.92
72428;BME280;60419;48.880;18.036;2022-09-14T08:20:35;98350.53;;;17.52;65.24
72428;BME280;60419;48.880;18.036;2022-09-14T08:23:21;98352.38;;;17.18;66.99
72428;BME280;60419;48.880;18.036;2022-09-14T08:26:18;98348.59;;;17.26;66.39
72428;BME280;60419;48.880;18.036;2022-09-14T08:29:04;98337.59;;;17.46;64.99
72428;BME280;60419;48.880;18.036;2022-09-14T08:31:49;98349.56;;;17.94;64.45
72428;BME280;60419;48.880;18.036;2022-09-14T08:34:35;98350.13;;;18.44;62.27
72428;BME280;60419;48.880;18.036;2022-09-14T08:37:21;98350.63;;;18.16;62.71
72428;BME280;60419;48.880;18.036;2022-09-14T08:40:06;98348.03;;;17.97;64.25
72428;BME280;60419;48.880;18.036;2022-09-14T08:42:55;98347.34;;;18.04;62.91
72428;BME280;60419;48.880;18.036;2022-09-14T08:45:43;98350.13;;;17.77;65.26
72428;BME280;60419;48.880;18.036;2022-09-14T08:48:35;98348.88;;;17.44;65.86
72428;BME280;60419;48.880;18.036;2022-09-14T08:51:21;98361.88;;;17.81;66.14
72428;BME280;60419;48.880;18.036;2022-09-14T08:54:08;98356.16;;;18.23;64.59
72428;BME280;60419;48.880;18.036;2022-09-14T08:57:18;98351.50;;;18.24;64.63
72428;BME280;60419;48.880;18.036;2022-09-14T09:03:28;98346.16;;;18.01;65.69
72428;BME280;60419;48.880;18.036;2022-09-14T09:06:34;98342.66;;;17.21;68.15
72428;BME280;60419;48.880;18.036;2022-09-14T09:09:41;98344.63;;;17.20;68.41
72428;BME280;60419;48.880;18.036;2022-09-14T09:12:58;98349.34;;;17.76;67.15
72428;BME280;60419;48.880;18.036;2022-09-14T09:15:48;98336.69;;;17.95;66.82
72428;BME280;60419;48.880;18.036;2022-09-14T09:18:50;98325.00;;;16.45;72.55
72428;BME280;60419;48.880;18.036;2022-09-14T09:21:44;98326.78;;;16.57;72.31
72428;BME280;60419;48.880;18.036;2022-09-14T09:24:39;98329.19;;;17.31;69.56
72428;BME280;60419;48.880;18.036;2022-09-14T09:27:25;98324.03;;;17.53;69.30
72428;BME280;60419;48.880;18.036;2022-09-14T09:30:13;98328.47;;;17.91;68.50
72428;BME280;60419;48.880;18.036;2022-09-14T09:32:59;98322.25;;;18.28;68.05
72428;BME280;60419;48.880;18.036;2022-09-14T09:35:44;98300.56;;;17.75;68.78
72428;BME280;60419;48.880;18.036;2022-09-14T09:38:30;98302.59;;;16.56;72.58
72428;BME280;60419;48.880;18.036;2022-09-14T09:41:18;98296.91;;;17.10;71.11
72428;BME280;60419;48.880;18.036;2022-09-14T09:44:07;98290.69;;;17.40;70.87
72428;BME280;60419;48.880;18.036;2022-09-14T09:46:57;98283.63;;;17.09;71.50
72428;BME280;60419;48.880;18.036;2022-09-14T09:49:44;98279.91;;;17.51;69.31
72428;BME280;60419;48.880;18.036;2022-09-14T09:52:30;98285.19;;;17.97;68.53
72428;BME280;60419;48.880;18.036;2022-09-14T09:55:18;98279.28;;;18.29;68.29
72428;BME280;60419;48.880;18.036;2022-09-14T10:01:31;98285.84;;;18.20;66.93
72428;BME280;60419;48.880;18.036;2022-09-14T10:04:19;98291.44;;;17.97;68.50
72428;BME280;60419;48.880;18.036;2022-09-14T10:07:05;98283.41;;;18.12;68.54
72428;BME280;60419;48.880;18.036;2022-09-14T10:10:10;98286.25;;;18.22;68.37
72428;BME280;60419;48.880;18.036;2022-09-14T10:12:56;98295.56;;;17.80;67.13
72428;BME280;60419;48.880;18.036;2022-09-14T10:15:42;98305.03;;;17.64;67.94
72428;BME280;60419;48.880;18.036;2022-09-14T10:18:28;98299.41;;;17.49;68.35
72428;BME280;60419;48.880;18.036;2022-09-14T10:21:16;98299.69;;;17.41;70.51
72428;BME280;60419;48.880;18.036;2022-09-14T10:24:25;98286.75;;;16.84;71.54
72428;BME280;60419;48.880;18.036;2022-09-14T10:30:19;98295.19;;;17.55;69.75
72428;BME280;60419;48.880;18.036;2022-09-14T10:33:11;98290.91;;;17.54;69.98
72428;BME280;60419;48.880;18.036;2022-09-14T10:36:09;98305.63;;;17.46;70.47
72428;BME280;60419;48.880;18.036;2022-09-14T10:53:42;98241.50;;;15.91;78.03
72428;BME280;60419;48.880;18.036;2022-09-14T11:00:15;98238.59;;;16.72;75.04
72428;BME280;60419;48.880;18.036;2022-09-14T11:03:35;98241.72;;;16.94;75.15
72428;BME280;60419;48.880;18.036;2022-09-14T11:09:20;98212.03;;;16.20;76.63
72428;BME280;60419;48.880;18.036;2022-09-14T11:13:20;98205.31;;;15.91;77.65
72428;BME280;60419;48.880;18.036;2022-09-14T11:15:57;98206.28;;;16.02;77.55
72428;BME280;60419;48.880;18.036;2022-09-14T11:22:05;98247.44;;;15.97;77.23
72428;BME280;60419;48.880;18.036;2022-09-14T11:24:58;98260.84;;;16.05;77.32
72428;BME280;60419;48.880;18.036;2022-09-14T11:28:04;98263.91;;;16.23;75.55
72428;BME280;60419;48.880;18.036;2022-09-14T11:30:55;98261.16;;;16.23;75.61
72428;BME280;60419;48.880;18.036;2022-09-14T11:33:59;98259.88;;;16.17;75.98
72428;BME280;60419;48.880;18.036;2022-09-14T11:37:05;98253.34;;;16.68;74.44
72428;BME280;60419;48.880;18.036;2022-09-14T11:48:29;98266.56;;;16.89;74.93
72428;BME280;60419;48.880;18.036;2022-09-14T11:51:22;98273.66;;;16.47;76.51
72428;BME280;60419;48.880;18.036;2022-09-14T11:54:17;98253.78;;;16.47;75.88
72428;BME280;60419;48.880;18.036;2022-09-14T11:57:03;98272.84;;;16.24;77.62
72428;BME280;60419;48.880;18.036;2022-09-14T12:11:25;98262.16;;;16.15;79.02
72428;BME280;60419;48.880;18.036;2022-09-14T12:17:22;98271.88;;;17.31;74.79
72428;BME280;60419;48.880;18.036;2022-09-14T12:29:39;98256.03;;;18.45;72.64
72428;BME280;60419;48.880;18.036;2022-09-14T12:32:40;98250.63;;;18.53;70.77
72428;BME280;60419;48.880;18.036;2022-09-14T12:44:03;98216.22;;;19.00;70.90
72428;BME280;60419;48.880;18.036;2022-09-14T12:50:18;98216.97;;;18.04;72.72
72428;BME280;60419;48.880;18.036;2022-09-14T12:53:32;98211.50;;;18.00;74.45
72428;BME280;60419;48.880;18.036;2022-09-14T12:56:29;98199.38;;;17.98;74.60
72428;BME280;60419;48.880;18.036;2022-09-14T13:05:44;98149.47;;;18.53;71.90
72428;BME280;60419;48.880;18.036;2022-09-14T13:08:31;98133.63;;;18.80;70.65
72428;BME280;60419;48.880;18.036;2022-09-14T13:11:30;98122.75;;;18.94;69.64
72428;BME280;60419;48.880;18.036;2022-09-14T13:14:17;98106.34;;;17.50;74.61
72428;BME280;60419;48.880;18.036;2022-09-14T13:17:03;98106.78;;;17.18;76.91
72428;BME280;60419;48.880;18.036;2022-09-14T13:20:01;98103.00;;;16.96;78.18
72428;BME280;60419;48.880;18.036;2022-09-14T13:22:48;98096.97;;;17.85;73.78
72428;BME280;60419;48.880;18.036;2022-09-14T13:25:36;98100.06;;;18.28;72.69
72428;BME280;60419;48.880;18.036;2022-09-14T13:28:26;98084.72;;;18.67;71.41
72428;BME280;60419;48.880;18.036;2022-09-14T13:31:16;98090.44;;;18.48;71.67
72428;BME280;60419;48.880;18.036;2022-09-14T13:34:03;98088.31;;;18.86;71.28
72428;BME280;60419;48.880;18.036;2022-09-14T13:36:49;98082.34;;;16.95;76.58
72428;BME280;60419;48.880;18.036;2022-09-14T13:39:37;98086.97;;;16.91;78.49
72428;BME280;60419;48.880;18.036;2022-09-14T13:42:24;98094.81;;;16.96;79.17
72428;BME280;60419;48.880;18.036;2022-09-14T13:45:11;98090.66;;;17.40;77.20
72428;BME280;60419;48.880;18.036;2022-09-14T13:47:58;98089.34;;;16.96;78.21
72428;BME280;60419;48.880;18.036;2022-09-14T13:50:49;98083.84;;;17.64;76.26
72428;BME280;60419;48.880;18.036;2022-09-14T13:53:39;98080.63;;;17.88;74.03
72428;BME280;60419;48.880;18.036;2022-09-14T13:56:31;98078.47;;;18.12;72.10
72428;BME280;60419;48.880;18.036;2022-09-14T13:59:19;98061.50;;;18.43;72.03
72428;BME280;60419;48.880;18.036;2022-09-14T14:02:11;98068.81;;;17.40;75.23
72428;BME280;60419;48.880;18.036;2022-09-14T14:04:57;98063.03;;;18.41;72.28
72428;BME280;60419;48.880;18.036;2022-09-14T14:07:44;98046.66;;;17.48;75.08
72428;BME280;60419;48.880;18.036;2022-09-14T14:10:38;98065.50;;;17.61;74.19
72428;BME280;60419;48.880;18.036;2022-09-14T14:13:36;98073.50;;;18.24;72.86
72428;BME280;60419;48.880;18.036;2022-09-14T14:16:24;98072.22;;;18.70;71.50
72428;BME280;60419;48.880;18.036;2022-09-14T14:19:29;98076.75;;;17.55;75.23
72428;BME280;60419;48.880;18.036;2022-09-14T14:25:17;98060.94;;;18.16;73.45
72428;BME280;60419;48.880;18.036;2022-09-14T14:28:12;98079.28;;;18.78;71.04
72428;BME280;60419;48.880;18.036;2022-09-14T14:31:00;98075.81;;;18.85;70.40
72428;BME280;60419;48.880;18.036;2022-09-14T14:33:54;98076.34;;;19.16;69.79
72428;BME280;60419;48.880;18.036;2022-09-14T14:36:40;98067.06;;;19.56;68.04
72428;BME280;60419;48.880;18.036;2022-09-14T14:39:25;98069.38;;;19.47;68.00
72428;BME280;60419;48.880;18.036;2022-09-14T14:42:13;98077.63;;;19.54;67.79
72428;BME280;60419;48.880;18.036;2022-09-14T14:44:59;98059.56;;;19.35;67.46
72428;BME280;60419;48.880;18.036;2022-09-14T14:47:45;98089.81;;;19.67;67.56
72428;BME280;60419;48.880;18.036;2022-09-14T14:50:32;98095.66;;;19.87;67.14
72428;BME280;60419;48.880;18.036;2022-09-14T14:53:18;98099.97;;;19.77;67.33
72428;BME280;60419;48.880;18.036;2022-09-14T14:56:03;98097.59;;;19.58;67.52
72428;BME280;60419;48.880;18.036;2022-09-14T14:58:49;98094.38;;;19.31;68.72
72428;BME280;60419;48.880;18.036;2022-09-14T15:01:34;98097.94;;;19.49;68.05
72428;BME280;60419;48.880;18.036;2022-09-14T15:04:20;98089.31;;;19.47;68.11
72428;BME280;60419;48.880;18.036;2022-09-14T15:07:06;98085.78;;;19.40;68.42
72428;BME280;60419;48.880;18.036;2022-09-14T15:09:52;98071.88;;;18.79;70.40
72428;BME280;60419;48.880;18.036;2022-09-14T15:12:37;98077.38;;;18.79;70.59
72428;BME280;60419;48.880;18.036;2022-09-14T15:15:25;98086.06;;;18.36;72.21
72428;BME280;60419;48.880;18.036;2022-09-14T15:18:10;98090.53;;;18.07;72.92
72428;BME280;60419;48.880;18.036;2022-09-14T15:20:55;98077.00;;;18.21;72.63
72428;BME280;60419;48.880;18.036;2022-09-14T15:23:41;98078.31;;;18.45;71.83
72428;BME280;60419;48.880;18.036;2022-09-14T15:26:26;98068.38;;;18.82;69.98
72428;BME280;60419;48.880;18.036;2022-09-14T15:29:12;98075.19;;;19.24;69.11
72428;BME280;60419;48.880;18.036;2022-09-14T15:31:58;98077.59;;;19.50;68.41
72428;BME280;60419;48.880;18.036;2022-09-14T15:34:43;98068.19;;;19.51;68.51
72428;BME280;60419;48.880;18.036;2022-09-14T15:37:29;98051.38;;;19.46;68.08
72428;BME280;60419;48.880;18.036;2022-09-14T15:40:14;98072.94;;;19.72;67.68
72428;BME280;60419;48.880;18.036;2022-09-14T15:43:00;98055.38;;;19.81;67.38
72428;BME280;60419;48.880;18.036;2022-09-14T15:45:45;98066.72;;;19.90;67.24
72428;BME280;60419;48.880;18.036;2022-09-14T15:48:30;98074.94;;;19.93;67.11
72428;BME280;60419;48.880;18.036;2022-09-14T15:51:16;98078.06;;;20.28;65.99
72428;BME280;60419;48.880;18.036;2022-09-14T15:54:03;98072.59;;;20.10;66.80
72428;BME280;60419;48.880;18.036;2022-09-14T15:56:51;98068.66;;;20.25;66.22
72428;BME280;60419;48.880;18.036;2022-09-14T15:59:37;98068.66;;;20.39;65.58
72428;BME280;60419;48.880;18.036;2022-09-14T16:02:23;98061.59;;;20.42;65.53
72428;BME280;60419;48.880;18.036;2022-09-14T16:05:09;98072.16;;;20.47;65.47
72428;BME280;60419;48.880;18.036;2022-09-14T16:07:55;98069.03;;;20.52;64.60
72428;BME280;60419;48.880;18.036;2022-09-14T16:10:41;98071.41;;;20.25;65.77
72428;BME280;60419;48.880;18.036;2022-09-14T16:13:27;98076.06;;;20.25;65.76
72428;BME280;60419;48.880;18.036;2022-09-14T16:16:14;98074.94;;;20.44;65.30
72428;BME280;60419;48.880;18.036;2022-09-14T16:19:04;98067.47;;;20.44;64.93
72428;BME280;60419;48.880;18.036;2022-09-14T16:21:50;98061.63;;;19.85;67.66
72428;BME280;60419;48.880;18.036;2022-09-14T16:24:36;98062.38;;;20.14;66.30
72428;BME280;60419;48.880;18.036;2022-09-14T16:27:21;98066.69;;;20.18;65.30